Time;durP1;ratioP1;P1;durP2;ratioP2;P2;SDS_P1;SDS_P2;PMS_P1;PMS_P2;Temp;Humidity;BMP_temperature;BMP_pressure;BME280_temperature;BME280_humidity;BME280_pressure;Samples;Min_cycle;Max_cycle;Signal;HPM_P1;HPM_P2
2022/09/12 00:01:02;;;;;;;8.10;5.90;;;;;;;;;;5049890;28;20472;-63
2022/09/12 00:03:28;;;;;;;5.68;4.90;;;;;;;;;;5040257;28;20053;-63
2022/09/12 00:05:54;;;;;;;6.53;5.50;;;;;;;;;;5029446;28;20037;-63
2022/09/12 00:08:20;;;;;;;6.03;5.43;;;;;;;;;;5029575;28;20103;-63
2022/09/12 00:10:46;;;;;;;4.80;4.40;;;;;;;;;;5029876;28;20076;-63
2022/09/12 00:13:11;;;;;;;5.95;4.82;;;;;;;;;;5029037;28;20053;-63
2022/09/12 00:15:38;;;;;;;6.00;4.38;;;;;;;;;;5029660;28;20041;-63
2022/09/12 00:18:04;;;;;;;5.45;4.90;;;;;;;;;;5029680;28;20041;-63
2022/09/12 00:20:30;;;;;;;5.90;5.20;;;;;;;;;;5029409;28;20096;-63
2022/09/12 00:22:56;;;;;;;6.30;4.47;;;;;;;;;;5029628;28;20120;-63
2022/09/12 00:25:22;;;;;;;5.07;4.68;;;;;;;;;;5033367;28;20480;-63
2022/09/12 00:27:48;;;;;;;5.40;4.90;;;;;;;;;;5049392;28;20540;-63
2022/09/12 00:30:14;;;;;;;4.95;4.25;;;;;;;;;;5049224;28;20056;-63
2022/09/12 00:32:40;;;;;;;5.47;4.40;;;;;;;;;;5049106;28;20040;-63
2022/09/12 00:35:06;;;;;;;4.63;4.22;;;;;;;;;;5049325;28;20475;-63
2022/09/12 00:37:34;;;;;;;5.13;4.70;;;;;;;;;;5049074;28;20040;-63
2022/09/12 00:39:59;;;;;;;4.63;4.22;;;;;;;;;;5031222;28;20052;-63
2022/09/12 00:42:25;;;;;;;4.95;4.47;;;;;;;;;;5049225;28;20434;-63
2022/09/12 00:44:52;;;;;;;4.68;4.10;;;;;;;;;;5030990;28;20040;-63
2022/09/12 00:47:28;;;;;;;4.80;4.40;;;;;;;;;;5049148;28;20052;-63
2022/09/12 00:50:00;;;;;;;4.68;4.18;;;;;;;;;;5049262;28;20547;-63
2022/09/12 00:52:49;;;;;;;6.57;4.07;;;;;;;;;;5049180;28;20045;-63
2022/09/12 00:55:27;;;;;;;6.55;4.05;;;;;;;;;;5036140;28;20088;-63
2022/09/12 00:57:53;;;;;;;4.15;3.58;;;;;;;;;;5049044;28;20123;-63
2022/09/12 01:00:21;;;;;;;4.05;3.35;;;;;;;;;;5048900;28;20049;-63
2022/09/12 01:02:52;;;;;;;3.50;3.20;;;;;;;;;;5046307;28;20076;-63
2022/09/12 01:05:18;;;;;;;4.97;4.38;;;;;;;;;;5032421;28;20038;-63
2022/09/12 01:07:47;;;;;;;4.82;4.32;;;;;;;;;;5033091;28;20060;-63
2022/09/12 01:10:14;;;;;;;4.90;4.50;;;;;;;;;;5032660;28;20061;-63
2022/09/12 01:12:40;;;;;;;4.68;4.28;;;;;;;;;;5032699;28;20049;-63
2022/09/12 01:15:07;;;;;;;5.55;4.88;;;;;;;;;;5015094;28;20045;-63
2022/09/12 01:17:41;;;;;;;6.00;4.72;;;;;;;;;;5032953;28;20037;-63
2022/09/12 01:20:10;;;;;;;5.35;4.85;;;;;;;;;;5032707;28;20129;-63
2022/09/12 01:22:43;;;;;;;4.97;4.57;;;;;;;;;;5032897;28;20409;-63
2022/09/12 01:25:13;;;;;;;7.15;4.68;;;;;;;;;;5034801;28;20185;-63
2022/09/12 01:27:52;;;;;;;6.78;6.18;;;;;;;;;;5051976;28;20056;-63
2022/09/12 01:30:27;;;;;;;7.90;6.28;;;;;;;;;;5052839;28;20044;-63
2022/09/12 01:32:53;;;;;;;6.93;6.22;;;;;;;;;;5052557;28;20076;-63
2022/09/12 01:35:20;;;;;;;6.45;5.78;;;;;;;;;;5052274;28;20065;-63
2022/09/12 01:37:53;;;;;;;6.70;6.00;;;;;;;;;;5052203;28;20094;-63
2022/09/12 01:40:25;;;;;;;6.63;5.97;;;;;;;;;;5052241;28;20041;-63
2022/09/12 01:42:57;;;;;;;7.00;6.30;;;;;;;;;;5034294;28;20094;-63
2022/09/12 01:45:46;;;;;;;7.28;6.53;;;;;;;;;;5052517;28;20045;-63
2022/09/12 01:48:12;;;;;;;7.07;6.00;;;;;;;;;;5005878;28;20051;-63
2022/09/12 01:50:43;;;;;;;7.82;6.47;;;;;;;;;;5051771;28;20045;-63
2022/09/12 01:53:15;;;;;;;10.95;7.03;;;;;;;;;;5052223;28;20119;-63
2022/09/12 01:55:45;;;;;;;9.18;8.20;;;;;;;;;;5052363;28;20122;-63
2022/09/12 01:58:22;;;;;;;10.75;9.32;;;;;;;;;;5051800;28;20604;-63
2022/09/12 02:00:51;;;;;;;10.65;8.38;;;;;;;;;;5034077;28;20075;-63
2022/09/12 02:03:20;;;;;;;10.13;7.90;;;;;;;;;;5044093;28;20041;-63
2022/09/12 02:05:55;;;;;;;8.73;7.70;;;;;;;;;;5031600;28;20041;-63
2022/09/12 02:08:40;;;;;;;9.68;8.40;;;;;;;;;;5031752;28;20476;-63
2022/09/12 02:11:07;;;;;;;10.73;9.27;;;;;;;;;;5032042;28;20403;-63
2022/09/12 02:13:39;;;;;;;15.52;11.30;;;;;;;;;;5031288;28;20111;-63
2022/09/12 02:16:09;;;;;;;15.10;11.13;;;;;;;;;;5032118;28;20044;-63
2022/09/12 02:18:37;;;;;;;13.63;10.93;;;;;;;;;;5031622;28;20080;-63
2022/09/12 02:21:05;;;;;;;12.70;10.60;;;;;;;;;;5031514;28;20099;-63
2022/09/12 02:23:32;;;;;;;12.48;11.10;;;;;;;;;;5031890;28;20049;-63
2022/09/12 02:26:04;;;;;;;13.23;10.65;;;;;;;;;;5040387;28;20057;-63
2022/09/12 02:28:34;;;;;;;13.15;10.82;;;;;;;;;;5051215;28;20037;-63
2022/09/12 02:31:10;;;;;;;12.43;11.10;;;;;;;;;;5051633;28;20037;-63
2022/09/12 02:33:36;;;;;;;13.38;11.15;;;;;;;;;;5051492;28;20056;-63
2022/09/12 02:36:06;;;;;;;12.70;11.25;;;;;;;;;;5051159;28;20048;-63
2022/09/12 02:38:35;;;;;;;14.48;12.57;;;;;;;;;;5051316;28;20102;-63
2022/09/12 02:41:01;;;;;;;14.38;11.63;;;;;;;;;;5051469;28;20122;-63
2022/09/12 02:43:27;;;;;;;12.98;11.55;;;;;;;;;;5051068;28;20151;-63
2022/09/12 02:45:53;;;;;;;15.07;12.20;;;;;;;;;;5051345;28;20068;-63
2022/09/12 02:48:25;;;;;;;16.40;12.18;;;;;;;;;;5051104;28;20048;-63
2022/09/12 02:50:51;;;;;;;13.73;11.88;;;;;;;;;;5050584;28;20119;-63
2022/09/12 02:53:18;;;;;;;16.58;13.25;;;;;;;;;;5050864;28;20118;-63
2022/09/12 02:55:44;;;;;;;14.70;12.57;;;;;;;;;;5051112;28;20041;-63
2022/09/12 02:58:12;;;;;;;15.90;12.50;;;;;;;;;;5050399;28;20040;-63
2022/09/12 03:00:48;;;;;;;14.98;12.60;;;;;;;;;;5050864;28;20128;-63
2022/09/12 03:03:25;;;;;;;15.27;12.40;;;;;;;;;;5043574;28;20043;-63
2022/09/12 03:05:57;;;;;;;15.13;11.90;;;;;;;;;;5030796;28;20073;-63
2022/09/12 03:08:35;;;;;;;15.85;12.48;;;;;;;;;;5030289;28;20029;-63
2022/09/12 03:11:20;;;;;;;13.63;11.98;;;;;;;;;;5030820;28;20046;-63
2022/09/12 03:13:49;;;;;;;13.98;11.70;;;;;;;;;;5030954;28;20063;-63
2022/09/12 03:16:30;;;;;;;16.67;12.35;;;;;;;;;;5030911;28;20041;-63
2022/09/12 03:19:02;;;;;;;14.65;12.15;;;;;;;;;;5030319;28;20120;-63
2022/09/12 03:21:32;;;;;;;13.23;11.70;;;;;;;;;;5030842;28;20147;-63
2022/09/12 03:24:13;;;;;;;13.15;11.75;;;;;;;;;;5030773;28;20049;-63
2022/09/12 03:26:42;;;;;;;14.25;12.55;;;;;;;;;;5043672;28;20395;-63
2022/09/12 03:29:09;;;;;;;16.02;13.57;;;;;;;;;;5050598;28;20448;-63
2022/09/12 03:31:35;;;;;;;15.77;12.93;;;;;;;;;;5032743;28;20043;-62
2022/09/12 03:34:02;;;;;;;17.05;13.15;;;;;;;;;;5050084;28;20033;-62
2022/09/12 03:36:28;;;;;;;17.63;14.32;;;;;;;;;;5050386;28;20056;-63
2022/09/12 03:38:54;;;;;;;15.35;12.48;;;;;;;;;;5050133;28;20045;-63
2022/09/12 03:41:21;;;;;;;16.55;13.73;;;;;;;;;;5049549;28;20563;-63
2022/09/12 03:43:47;;;;;;;16.95;13.70;;;;;;;;;;5049832;28;20041;-63
2022/09/12 03:46:13;;;;;;;15.40;12.25;;;;;;;;;;5050041;28;20033;-63
2022/09/12 03:48:40;;;;;;;14.70;12.85;;;;;;;;;;5049498;28;20041;-63
2022/09/12 03:51:07;;;;;;;18.05;12.68;;;;;;;;;;5050042;28;20434;-63
2022/09/12 03:53:33;;;;;;;19.05;15.05;;;;;;;;;;5050059;28;20041;-63
2022/09/12 03:55:59;;;;;;;20.35;15.80;;;;;;;;;;5049769;28;20047;-63
2022/09/12 03:58:29;;;;;;;19.33;14.48;;;;;;;;;;5049808;28;20041;-63
2022/09/12 04:00:55;;;;;;;21.17;16.05;;;;;;;;;;5031777;28;20411;-63
2022/09/12 04:03:21;;;;;;;22.13;16.23;;;;;;;;;;5041195;28;20037;-63
2022/09/12 04:05:47;;;;;;;22.70;15.77;;;;;;;;;;5012180;28;20519;-63
2022/09/12 04:08:13;;;;;;;20.92;16.08;;;;;;;;;;5029625;28;20076;-63
2022/09/12 04:10:40;;;;;;;20.35;15.48;;;;;;;;;;5029375;28;20400;-63
2022/09/12 04:13:06;;;;;;;19.33;15.95;;;;;;;;;;5029812;28;20049;-63
2022/09/12 04:15:32;;;;;;;21.73;16.50;;;;;;;;;;5029654;28;20482;-63
2022/09/12 04:17:57;;;;;;;22.58;17.15;;;;;;;;;;5029023;28;20100;-63
2022/09/12 04:20:23;;;;;;;22.33;17.00;;;;;;;;;;5029736;28;20052;-63
2022/09/12 04:22:49;;;;;;;20.90;16.58;;;;;;;;;;5011779;28;20114;-63
2022/09/12 04:25:16;;;;;;;24.77;16.88;;;;;;;;;;5032062;28;20112;-63
2022/09/12 04:27:42;;;;;;;25.20;17.80;;;;;;;;;;5049598;28;20479;-63
2022/09/12 04:30:08;;;;;;;23.65;17.58;;;;;;;;;;5050759;28;20128;-63
2022/09/12 04:32:34;;;;;;;23.90;18.15;;;;;;;;;;5050438;28;20356;-63
2022/09/12 04:35:01;;;;;;;21.60;16.27;;;;;;;;;;5050730;28;20463;-63
2022/09/12 04:37:27;;;;;;;21.85;17.42;;;;;;;;;;5050273;28;20037;-62
2022/09/12 04:39:56;;;;;;;21.13;16.13;;;;;;;;;;5015646;28;20049;-62
2022/09/12 04:42:22;;;;;;;22.00;16.08;;;;;;;;;;5050558;28;20080;-62
2022/09/12 04:44:48;;;;;;;20.02;15.95;;;;;;;;;;5050626;28;20082;-62
2022/09/12 04:47:15;;;;;;;21.00;16.40;;;;;;;;;;5050072;28;20537;-62
2022/09/12 04:49:41;;;;;;;21.58;16.77;;;;;;;;;;5050493;28;20098;-63
2022/09/12 04:52:08;;;;;;;22.83;17.25;;;;;;;;;;5050565;28;20411;-62
2022/09/12 04:54:34;;;;;;;23.15;17.60;;;;;;;;;;5050276;28;20037;-63
2022/09/12 04:57:00;;;;;;;23.80;18.02;;;;;;;;;;5050432;28;20059;-62
2022/09/12 04:59:26;;;;;;;24.15;17.88;;;;;;;;;;5050546;28;20044;-62
2022/09/12 05:01:53;;;;;;;27.02;20.17;;;;;;;;;;5050050;28;20041;-62
2022/09/12 05:04:19;;;;;;;29.98;18.58;;;;;;;;;;5032751;28;20427;-62
2022/09/12 05:06:46;;;;;;;31.00;21.83;;;;;;;;;;5048419;28;20412;-62
2022/09/12 05:09:13;;;;;;;29.40;21.48;;;;;;;;;;5047776;28;20136;-62
2022/09/12 05:11:40;;;;;;;30.98;22.08;;;;;;;;;;5050014;28;20056;-63
2022/09/12 05:14:07;;;;;;;31.10;22.83;;;;;;;;;;5050311;28;20453;-62
2022/09/12 05:16:33;;;;;;;31.35;22.73;;;;;;;;;;5049495;28;20051;-62
2022/09/12 05:18:59;;;;;;;33.13;22.15;;;;;;;;;;5032037;28;20037;-62
2022/09/12 05:21:26;;;;;;;33.03;23.98;;;;;;;;;;5032199;28;20654;-63
2022/09/12 05:23:56;;;;;;;34.03;23.83;;;;;;;;;;5049804;28;20049;-62
2022/09/12 05:26:22;;;;;;;31.20;22.48;;;;;;;;;;5037628;28;20095;-63
2022/09/12 05:28:49;;;;;;;32.10;23.13;;;;;;;;;;5030117;28;20045;-62
2022/09/12 05:31:18;;;;;;;34.42;24.23;;;;;;;;;;5004560;28;20472;-62
2022/09/12 05:33:46;;;;;;;36.95;25.02;;;;;;;;;;5050004;28;20041;-62
2022/09/12 05:36:14;;;;;;;39.63;25.85;;;;;;;;;;5049805;28;20045;-62
2022/09/12 05:38:40;;;;;;;40.30;27.25;;;;;;;;;;5049489;28;20049;-62
2022/09/12 05:41:07;;;;;;;39.78;26.80;;;;;;;;;;5049608;28;20120;-62
2022/09/12 05:43:33;;;;;;;41.50;28.27;;;;;;;;;;5042907;28;20041;-63
2022/09/12 05:46:00;;;;;;;42.65;27.83;;;;;;;;;;5029638;28;20044;-62
2022/09/12 05:48:27;;;;;;;40.47;28.10;;;;;;;;;;5012065;28;20702;-63
2022/09/12 05:50:59;;;;;;;45.35;30.13;;;;;;;;;;5033493;28;20400;-62
2022/09/12 05:53:27;;;;;;;44.08;28.80;;;;;;;;;;5033502;28;20077;-63
2022/09/12 05:56:03;;;;;;;42.63;28.40;;;;;;;;;;5032831;28;20044;-62
2022/09/12 05:58:29;;;;;;;47.53;29.23;;;;;;;;;;5032643;28;20067;-62
2022/09/12 06:00:56;;;;;;;46.05;29.67;;;;;;;;;;5052647;28;20846;-62
2022/09/12 06:03:22;;;;;;;50.08;31.08;;;;;;;;;;5052986;28;20602;-62
2022/09/12 06:05:48;;;;;;;46.40;30.65;;;;;;;;;;5037974;28;20038;-62
2022/09/12 06:08:14;;;;;;;52.95;32.67;;;;;;;;;;5034347;28;20049;-63
2022/09/12 06:10:40;;;;;;;52.40;31.67;;;;;;;;;;5052046;28;20045;-62
2022/09/12 06:13:07;;;;;;;57.47;35.70;;;;;;;;;;5039373;28;20112;-62
2022/09/12 06:15:33;;;;;;;57.03;35.53;;;;;;;;;;5032746;28;20052;-62
2022/09/12 06:17:59;;;;;;;59.03;35.17;;;;;;;;;;5032248;28;20041;-62
2022/09/12 06:20:25;;;;;;;54.13;33.10;;;;;;;;;;5035987;28;20048;-62
2022/09/12 06:22:54;;;;;;;56.40;33.35;;;;;;;;;;5052462;28;20086;-62
2022/09/12 06:25:21;;;;;;;58.78;34.53;;;;;;;;;;5048350;28;20049;-63
2022/09/12 06:27:46;;;;;;;56.63;35.15;;;;;;;;;;5042977;28;20057;-63
2022/09/12 06:30:13;;;;;;;58.80;33.72;;;;;;;;;;5049402;28;20399;-62
2022/09/12 06:32:39;;;;;;;55.95;33.65;;;;;;;;;;5046804;28;20080;-63
2022/09/12 06:35:05;;;;;;;55.95;32.95;;;;;;;;;;5039156;28;20090;-62
2022/09/12 06:37:31;;;;;;;52.53;32.33;;;;;;;;;;5039556;28;20041;-62
2022/09/12 06:39:57;;;;;;;56.72;32.60;;;;;;;;;;5041779;28;20438;-62
2022/09/12 06:42:23;;;;;;;55.67;32.38;;;;;;;;;;5050921;28;20041;-63
2022/09/12 06:44:49;;;;;;;53.40;32.45;;;;;;;;;;5040518;28;20087;-63
2022/09/12 06:47:15;;;;;;;59.58;35.30;;;;;;;;;;5046869;28;20033;-62
2022/09/12 06:49:41;;;;;;;64.25;38.50;;;;;;;;;;5040615;28;20034;-62
2022/09/12 06:52:08;;;;;;;60.75;35.58;;;;;;;;;;5046938;28;20090;-63
2022/09/12 06:54:34;;;;;;;61.67;34.28;;;;;;;;;;5048814;28;20087;-62
2022/09/12 06:57:00;;;;;;;61.85;33.67;;;;;;;;;;5042136;28;20041;-62
2022/09/12 06:59:26;;;;;;;57.40;33.67;;;;;;;;;;5031321;28;20042;-62
2022/09/12 07:01:52;;;;;;;58.75;33.03;;;;;;;;;;5042809;28;20076;-62
2022/09/12 07:04:19;;;;;;;52.42;32.17;;;;;;;;;;5047814;28;20044;-62
2022/09/12 07:06:45;;;;;;;53.30;33.15;;;;;;;;;;5030810;28;20038;-62
2022/09/12 07:09:12;;;;;;;55.42;33.55;;;;;;;;;;5031944;28;20389;-62
2022/09/12 07:11:39;;;;;;;54.47;33.65;;;;;;;;;;5043668;28;20448;-62
2022/09/12 07:14:06;;;;;;;57.20;32.78;;;;;;;;;;5037043;28;20052;-62
2022/09/12 07:16:34;;;;;;;55.83;32.72;;;;;;;;;;5031737;28;20052;-62
2022/09/12 07:19:01;;;;;;;51.75;31.58;;;;;;;;;;5030804;28;20033;-62
2022/09/12 07:21:28;;;;;;;54.00;31.58;;;;;;;;;;5036785;28;20132;-62
2022/09/12 07:23:56;;;;;;;57.25;31.77;;;;;;;;;;5030866;28;20048;-62
2022/09/12 07:26:22;;;;;;;54.85;31.13;;;;;;;;;;5030144;28;20128;-62
2022/09/12 07:28:55;;;;;;;49.83;30.55;;;;;;;;;;5033361;28;20049;-62
2022/09/12 07:31:22;;;;;;;56.88;32.92;;;;;;;;;;5044718;28;20116;-62
2022/09/12 07:33:49;;;;;;;55.47;34.53;;;;;;;;;;5041451;28;20051;-62
2022/09/12 07:36:16;;;;;;;53.03;31.45;;;;;;;;;;5037184;28;20037;-62
2022/09/12 07:38:42;;;;;;;54.45;33.47;;;;;;;;;;5030264;28;20052;-62
2022/09/12 07:41:22;;;;;;;51.97;31.20;;;;;;;;;;5035763;28;20056;-62
2022/09/12 07:43:51;;;;;;;49.92;29.85;;;;;;;;;;5048407;28;20072;-62
2022/09/12 07:46:17;;;;;;;53.15;31.10;;;;;;;;;;5048675;28;20045;-62
2022/09/12 07:48:44;;;;;;;53.58;31.15;;;;;;;;;;5047112;28;20435;-62
2022/09/12 07:51:11;;;;;;;49.58;29.70;;;;;;;;;;5044988;28;20045;-62
2022/09/12 07:53:38;;;;;;;48.60;29.45;;;;;;;;;;5042902;28;20152;-62
2022/09/12 07:56:05;;;;;;;48.50;29.40;;;;;;;;;;5048276;28;20146;-61
2022/09/12 07:58:32;;;;;;;46.13;28.58;;;;;;;;;;5031426;28;20499;-61
2022/09/12 08:01:01;;;;;;;56.00;32.08;;;;;;;;;;5037894;28;20056;-61
2022/09/12 08:03:28;;;;;;;45.80;27.58;;;;;;;;;;5047325;28;20056;-59
2022/09/12 08:05:54;;;;;;;46.28;28.08;;;;;;;;;;5046098;28;20041;-60
2022/09/12 08:08:20;;;;;;;50.25;29.17;;;;;;;;;;5036680;28;20099;-63
2022/09/12 08:10:46;;;;;;;48.08;27.90;;;;;;;;;;5037126;28;20072;-63
2022/09/12 08:13:12;;;;;;;51.10;29.13;;;;;;;;;;5046420;28;20102;-64
2022/09/12 08:15:38;;;;;;;50.85;30.00;;;;;;;;;;5038177;28;20123;-63
2022/09/12 08:18:04;;;;;;;47.47;26.70;;;;;;;;;;5047512;28;20052;-65
2022/09/12 08:20:30;;;;;;;52.97;28.10;;;;;;;;;;5043998;28;20049;-64
2022/09/12 08:22:56;;;;;;;48.67;27.58;;;;;;;;;;5038358;28;20047;-64
2022/09/12 08:25:22;;;;;;;50.03;30.33;;;;;;;;;;5040357;28;20482;-65
2022/09/12 08:27:49;;;;;;;44.55;27.83;;;;;;;;;;5047166;28;20111;-65
2022/09/12 08:30:15;;;;;;;47.67;27.17;;;;;;;;;;5027461;28;20090;-64
2022/09/12 08:32:41;;;;;;;51.03;31.38;;;;;;;;;;5038530;28;20630;-63
2022/09/12 08:35:07;;;;;;;47.60;28.83;;;;;;;;;;5042845;28;20052;-64
2022/09/12 08:37:33;;;;;;;53.55;31.20;;;;;;;;;;5028278;28;20073;-63
2022/09/12 08:39:59;;;;;;;59.05;33.05;;;;;;;;;;5043368;28;20483;-64
2022/09/12 08:42:31;;;;;;;47.78;28.65;;;;;;;;;;5043689;28;20049;-63
2022/09/12 08:45:06;;;;;;;56.00;30.35;;;;;;;;;;5042579;28;20124;-63
2022/09/12 08:47:39;;;;;;;53.17;31.35;;;;;;;;;;5042209;28;20044;-64
2022/09/12 08:50:16;;;;;;;51.05;30.70;;;;;;;;;;5017668;28;20044;-63
2022/09/12 08:52:45;;;;;;;53.22;31.95;;;;;;;;;;5029809;28;20057;-65
2022/09/12 08:55:26;;;;;;;61.17;32.25;;;;;;;;;;5043818;28;20090;-64
2022/09/12 08:57:53;;;;;;;60.50;34.50;;;;;;;;;;5043718;28;20045;-64
2022/09/12 09:00:20;;;;;;;63.47;35.67;;;;;;;;;;5037269;28;20303;-63
2022/09/12 09:03:01;;;;;;;55.22;31.30;;;;;;;;;;5046544;28;20045;-64
2022/09/12 09:05:46;;;;;;;58.35;32.10;;;;;;;;;;5046564;28;20167;-64
2022/09/12 09:08:15;;;;;;;58.97;34.30;;;;;;;;;;5043530;28;20040;-64
2022/09/12 09:10:47;;;;;;;54.35;32.60;;;;;;;;;;5032194;28;20049;-64
2022/09/12 09:14:46;;;;;;;62.05;34.53;;;;;;;;;;5033372;28;20041;-63
2022/09/12 09:16:07;;;;;;;67.22;36.13;;;;;;;;;;5038421;28;20049;-64
2022/09/12 09:18:34;;;;;;;71.00;37.17;;;;;;;;;;5041038;28;20745;-63
2022/09/12 09:21:05;;;;;;;65.28;36.22;;;;;;;;;;5033669;28;20455;-64
2022/09/12 09:23:42;;;;;;;62.28;35.00;;;;;;;;;;5040740;28;20037;-62
2022/09/12 09:26:13;;;;;;;58.60;33.25;;;;;;;;;;5045584;28;20048;-63
2022/09/12 09:28:44;;;;;;;82.57;36.90;;;;;;;;;;5044863;28;20049;-62
2022/09/12 09:31:24;;;;;;;65.93;35.97;;;;;;;;;;5039146;28;20041;-63
2022/09/12 09:33:57;;;;;;;64.72;35.83;;;;;;;;;;5046512;28;20040;-63
2022/09/12 09:36:32;;;;;;;66.32;36.33;;;;;;;;;;5042379;28;20599;-63
2022/09/12 09:39:04;;;;;;;61.03;34.90;;;;;;;;;;5034624;28;20045;-64
2022/09/12 09:41:39;;;;;;;61.85;33.08;;;;;;;;;;5035373;28;20041;-64
2022/09/12 09:44:05;;;;;;;59.15;31.77;;;;;;;;;;5037003;28;20391;-64
2022/09/12 09:46:31;;;;;;;62.78;33.88;;;;;;;;;;5043933;28;20041;-65
2022/09/12 09:48:58;;;;;;;55.78;32.47;;;;;;;;;;5042581;28;20096;-65
2022/09/12 09:51:26;;;;;;;54.53;31.75;;;;;;;;;;5041373;28;20393;-64
2022/09/12 09:54:03;;;;;;;55.13;32.28;;;;;;;;;;5035142;28;20597;-64
2022/09/12 09:56:30;;;;;;;48.97;27.85;;;;;;;;;;5039256;28;20119;-64
2022/09/12 09:58:56;;;;;;;52.20;27.42;;;;;;;;;;5047442;28;20036;-64
2022/09/12 10:01:23;;;;;;;47.15;28.25;;;;;;;;;;5048015;28;20484;-65
2022/09/12 10:03:51;;;;;;;44.47;26.02;;;;;;;;;;5038321;28;20044;-64
2022/09/12 10:06:19;;;;;;;43.97;26.23;;;;;;;;;;5047229;28;20131;-65
2022/09/12 10:08:45;;;;;;;41.20;25.52;;;;;;;;;;5050373;28;20047;-66
2022/09/12 10:11:15;;;;;;;46.03;26.30;;;;;;;;;;5039970;28;20041;-65
2022/09/12 10:13:43;;;;;;;44.08;26.95;;;;;;;;;;5039311;28;20442;-64
2022/09/12 10:16:18;;;;;;;44.67;26.00;;;;;;;;;;5049420;28;20045;-64
2022/09/12 10:18:44;;;;;;;44.70;26.52;;;;;;;;;;5043958;28;20040;-65
2022/09/12 10:21:28;;;;;;;41.53;25.92;;;;;;;;;;5036417;28;20040;-64
2022/09/12 10:24:04;;;;;;;42.50;25.55;;;;;;;;;;5032698;28;20110;-62
2022/09/12 10:26:38;;;;;;;42.90;25.15;;;;;;;;;;5028848;28;20049;-64
2022/09/12 10:29:16;;;;;;;41.20;24.85;;;;;;;;;;5037678;28;20033;-64
2022/09/12 10:31:47;;;;;;;42.17;24.40;;;;;;;;;;5046801;28;20404;-63
2022/09/12 10:34:32;;;;;;;38.00;24.13;;;;;;;;;;5031632;28;20048;-64
2022/09/12 10:37:01;;;;;;;40.58;24.35;;;;;;;;;;5040397;28;20048;-63
2022/09/12 10:39:28;;;;;;;40.03;23.65;;;;;;;;;;5032103;28;20109;-65
2022/09/12 10:41:54;;;;;;;34.28;22.52;;;;;;;;;;5040435;28;20356;-64
2022/09/12 10:44:28;;;;;;;30.80;20.17;;;;;;;;;;5042120;28;20052;-63
2022/09/12 10:46:55;;;;;;;37.03;21.67;;;;;;;;;;5047973;28;20114;-64
2022/09/12 10:49:28;;;;;;;30.20;19.27;;;;;;;;;;5042311;28;20078;-64
2022/09/12 10:51:55;;;;;;;34.25;21.35;;;;;;;;;;5048069;28;20041;-65
2022/09/12 10:54:23;;;;;;;34.70;21.17;;;;;;;;;;5045046;28;20045;-64
2022/09/12 10:56:56;;;;;;;32.40;20.45;;;;;;;;;;5043692;28;20056;-64
2022/09/12 10:59:34;;;;;;;27.92;18.25;;;;;;;;;;5030795;28;20037;-65
2022/09/12 11:02:03;;;;;;;28.15;15.88;;;;;;;;;;5049428;28;20037;-64
2022/09/12 11:04:29;;;;;;;23.73;16.13;;;;;;;;;;5047701;28;20435;-65
2022/09/12 11:07:04;;;;;;;25.48;16.85;;;;;;;;;;5037406;28;20041;-65
2022/09/12 11:09:36;;;;;;;27.85;17.13;;;;;;;;;;5036837;28;20063;-64
2022/09/12 11:12:02;;;;;;;27.05;17.27;;;;;;;;;;5044858;28;20073;-63
2022/09/12 11:14:46;;;;;;;27.27;17.05;;;;;;;;;;5042556;28;20197;-64
2022/09/12 11:17:12;;;;;;;29.65;18.08;;;;;;;;;;5036540;28;20038;-63
2022/09/12 11:19:57;;;;;;;25.30;16.63;;;;;;;;;;5030749;28;20038;-63
2022/09/12 11:22:23;;;;;;;28.38;17.58;;;;;;;;;;5043547;28;20104;-63
2022/09/12 11:24:52;;;;;;;25.50;16.83;;;;;;;;;;5048060;28;20047;-64
2022/09/12 11:27:33;;;;;;;27.00;16.95;;;;;;;;;;5029754;28;20095;-64
2022/09/12 11:30:07;;;;;;;20.08;13.20;;;;;;;;;;5041264;28;20082;-63
2022/09/12 11:32:36;;;;;;;24.77;15.68;;;;;;;;;;5048581;28;20111;-64
2022/09/12 11:35:23;;;;;;;24.17;15.95;;;;;;;;;;5034195;28;20075;-64
2022/09/12 11:38:01;;;;;;;22.42;13.23;;;;;;;;;;5045709;28;20120;-65
2022/09/12 11:40:27;;;;;;;20.67;13.43;;;;;;;;;;5034488;28;20049;-64
2022/09/12 11:42:57;;;;;;;22.75;13.00;;;;;;;;;;5047154;28;20499;-64
2022/09/12 11:45:35;;;;;;;22.17;14.25;;;;;;;;;;5045780;28;20047;-64
2022/09/12 11:48:05;;;;;;;20.67;12.52;;;;;;;;;;5048985;28;20040;-63
2022/09/12 11:50:31;;;;;;;22.63;13.13;;;;;;;;;;5043542;28;20091;-62
2022/09/12 11:53:02;;;;;;;17.13;10.82;;;;;;;;;;5046323;28;20680;-64
2022/09/12 11:55:30;;;;;;;16.52;10.55;;;;;;;;;;5050380;28;20048;-64
2022/09/12 11:57:57;;;;;;;17.15;9.90;;;;;;;;;;5047954;28;20386;-64
2022/09/12 12:00:42;;;;;;;20.17;12.55;;;;;;;;;;5034934;28;20671;-63
2022/09/12 12:03:20;;;;;;;21.40;12.55;;;;;;;;;;5049105;28;20115;-64
2022/09/12 12:05:53;;;;;;;20.90;13.40;;;;;;;;;;5033275;28;20040;-64
2022/09/12 12:08:20;;;;;;;18.23;10.98;;;;;;;;;;5047436;28;20045;-64
2022/09/12 12:10:55;;;;;;;20.48;10.55;;;;;;;;;;5027889;28;20496;-64
2022/09/12 12:13:21;;;;;;;14.98;9.38;;;;;;;;;;5029669;28;20387;-65
2022/09/12 12:15:48;;;;;;;14.70;8.90;;;;;;;;;;5043898;28;20034;-65
2022/09/12 12:18:19;;;;;;;17.40;9.60;;;;;;;;;;5041979;28;20142;-65
2022/09/12 12:20:45;;;;;;;15.65;9.50;;;;;;;;;;5047893;28;20360;-65
2022/09/12 12:23:26;;;;;;;14.30;9.82;;;;;;;;;;5047058;28;20037;-66
2022/09/12 12:25:53;;;;;;;12.77;8.25;;;;;;;;;;5043768;28;20123;-64
2022/09/12 12:28:38;;;;;;;16.50;9.60;;;;;;;;;;5044519;28;20038;-66
2022/09/12 12:31:05;;;;;;;14.13;8.65;;;;;;;;;;5042147;28;20032;-66
2022/09/12 12:33:31;;;;;;;14.80;8.98;;;;;;;;;;5044338;28;20043;-64
2022/09/12 12:35:59;;;;;;;12.75;8.07;;;;;;;;;;5045792;28;20045;-64
2022/09/12 12:38:25;;;;;;;11.02;6.38;;;;;;;;;;5045904;28;20059;-64
2022/09/12 12:40:51;;;;;;;9.00;5.72;;;;;;;;;;5048112;28;20372;-65
2022/09/12 12:43:30;;;;;;;11.25;7.00;;;;;;;;;;5045043;28;20041;-65
2022/09/12 12:46:03;;;;;;;11.10;6.25;;;;;;;;;;5044862;28;20510;-65
2022/09/12 12:48:31;;;;;;;9.52;5.70;;;;;;;;;;5040687;28;20538;-64
2022/09/12 12:51:35;;;;;;;8.85;5.45;;;;;;;;;;5043997;28;20154;-65
2022/09/12 12:54:03;;;;;;;6.38;4.15;;;;;;;;;;5004302;28;20044;-64
2022/09/12 12:56:33;;;;;;;4.90;3.95;;;;;;;;;;5003045;28;20038;-66
2022/09/12 12:59:01;;;;;;;4.38;3.80;;;;;;;;;;5029145;28;20053;-65
2022/09/12 13:01:28;;;;;;;9.38;5.18;;;;;;;;;;5051248;28;20506;-64
2022/09/12 13:03:55;;;;;;;6.45;5.55;;;;;;;;;;5051265;28;20114;-66
2022/09/12 13:06:35;;;;;;;5.65;4.40;;;;;;;;;;5049740;28;20041;-68
2022/09/12 13:09:03;;;;;;;7.20;4.20;;;;;;;;;;5041040;28;20136;-66
2022/09/12 13:11:39;;;;;;;5.82;3.70;;;;;;;;;;5050259;28;20053;-63
2022/09/12 13:14:24;;;;;;;5.90;3.95;;;;;;;;;;5046635;28;20064;-66
2022/09/12 13:16:54;;;;;;;9.05;5.20;;;;;;;;;;5040364;28;20068;-64
2022/09/12 13:19:24;;;;;;;9.38;5.90;;;;;;;;;;5037330;28;20050;-64
2022/09/12 13:21:57;;;;;;;7.40;5.57;;;;;;;;;;5041431;28;20052;-64
2022/09/12 13:24:23;;;;;;;9.68;6.20;;;;;;;;;;5043791;28;20075;-65
2022/09/12 13:26:49;;;;;;;6.93;4.85;;;;;;;;;;5046955;28;20041;-65
2022/09/12 13:29:16;;;;;;;6.72;4.78;;;;;;;;;;5050648;28;20045;-64
2022/09/12 13:31:43;;;;;;;8.35;5.75;;;;;;;;;;5051527;28;20052;-64
2022/09/12 13:34:11;;;;;;;8.32;6.13;;;;;;;;;;5031516;28;20049;-65
2022/09/12 13:36:37;;;;;;;8.52;5.47;;;;;;;;;;5037427;28;20120;-64
2022/09/12 13:39:03;;;;;;;8.65;6.60;;;;;;;;;;5032597;28;20111;-64
2022/09/12 13:41:29;;;;;;;7.60;5.75;;;;;;;;;;5036347;28;20482;-65
2022/09/12 13:43:56;;;;;;;5.65;4.75;;;;;;;;;;5032531;28;20511;-65
2022/09/12 13:46:30;;;;;;;7.78;5.20;;;;;;;;;;5045534;28;20383;-64
2022/09/12 13:48:58;;;;;;;7.38;5.28;;;;;;;;;;5033587;28;20132;-63
2022/09/12 13:51:25;;;;;;;9.50;6.47;;;;;;;;;;5052268;28;20124;-63
2022/09/12 13:53:53;;;;;;;6.38;5.47;;;;;;;;;;5046955;28;20049;-64
2022/09/12 13:56:20;;;;;;;7.47;4.90;;;;;;;;;;5031146;28;20041;-64
2022/09/12 13:58:57;;;;;;;7.25;5.50;;;;;;;;;;5044937;28;20041;-64
2022/09/12 14:01:24;;;;;;;6.63;4.68;;;;;;;;;;5042479;28;20037;-64
2022/09/12 14:06:44;;;;;;;7.38;4.43;;;;;;;;;;5044006;28;20040;-64
2022/09/12 14:09:21;;;;;;;6.25;4.70;;;;;;;;;;5050326;28;20064;-64
2022/09/12 14:11:50;;;;;;;7.30;5.50;;;;;;;;;;5052464;28;20052;-64
2022/09/12 14:14:33;;;;;;;6.18;4.22;;;;;;;;;;5051650;28;20044;-64
2022/09/12 14:16:59;;;;;;;7.30;4.25;;;;;;;;;;5051873;28;20089;-64
2022/09/12 14:19:28;;;;;;;6.90;4.30;;;;;;;;;;5051837;28;20087;-64
2022/09/12 14:21:54;;;;;;;5.05;3.38;;;;;;;;;;5052352;28;20388;-64
2022/09/12 14:24:23;;;;;;;4.28;3.50;;;;;;;;;;5051429;28;20464;-65
2022/09/12 14:26:51;;;;;;;6.70;4.05;;;;;;;;;;5042699;28;20041;-64
2022/09/12 14:29:18;;;;;;;4.70;4.00;;;;;;;;;;5052249;28;20080;-64
2022/09/12 14:31:44;;;;;;;6.65;4.25;;;;;;;;;;5051758;28;20037;-64
2022/09/12 14:34:14;;;;;;;6.63;4.68;;;;;;;;;;5051675;28;20037;-63
2022/09/12 14:36:47;;;;;;;7.82;4.53;;;;;;;;;;5052526;28;20153;-64
2022/09/12 14:39:23;;;;;;;7.68;4.97;;;;;;;;;;5051649;28;20395;-64